sensor_id;sensor_type;location;lat;lon;timestamp;pressure;altitude;pressure_sealevel;temperature;humidity
50852;BME280;43953;45.508;-122.806;2022-10-26T00:00:12;100743.28;;;14.35;65.25
50852;BME280;43953;45.508;-122.806;2022-10-26T00:00:44;100735.16;;;14.35;65.32
50852;BME280;43953;45.508;-122.806;2022-10-26T00:01:16;100725.63;;;14.32;65.15
50852;BME280;43953;45.508;-122.806;2022-10-26T00:01:47;100738.91;;;14.34;65.48
50852;BME280;43953;45.508;-122.806;2022-10-26T00:02:19;100736.44;;;14.32;65.13
50852;BME280;43953;45.508;-122.806;2022-10-26T00:02:53;100735.63;;;14.32;65.26
50852;BME280;43953;45.508;-122.806;2022-10-26T00:03:25;100731.84;;;14.33;65.36
50852;BME280;43953;45.508;-122.806;2022-10-26T00:03:57;100727.50;;;14.32;65.32
50852;BME280;43953;45.508;-122.806;2022-10-26T00:04:28;100735.38;;;14.33;65.55
50852;BME280;43953;45.508;-122.806;2022-10-26T00:05:00;100733.50;;;14.34;65.28
50852;BME280;43953;45.508;-122.806;2022-10-26T00:05:33;100729.75;;;14.35;65.33
50852;BME280;43953;45.508;-122.806;2022-10-26T00:06:13;100725.38;;;14.34;65.29
50852;BME280;43953;45.508;-122.806;2022-10-26T00:06:45;100727.25;;;14.33;65.36
50852;BME280;43953;45.508;-122.806;2022-10-26T00:07:17;100734.56;;;14.33;65.57
50852;BME280;43953;45.508;-122.806;2022-10-26T00:07:49;100728.06;;;14.34;65.66
50852;BME280;43953;45.508;-122.806;2022-10-26T00:08:21;100724.34;;;14.35;65.62
50852;BME280;43953;45.508;-122.806;2022-10-26T00:08:52;100731.03;;;14.32;65.40
50852;BME280;43953;45.508;-122.806;2022-10-26T00:09:25;100727.50;;;14.32;65.56
50852;BME280;43953;45.508;-122.806;2022-10-26T00:09:57;100725.84;;;14.31;65.34
50852;BME280;43953;45.508;-122.806;2022-10-26T00:10:29;100727.50;;;14.32;65.34
50852;BME280;43953;45.508;-122.806;2022-10-26T00:11:00;100727.72;;;14.30;65.72
50852;BME280;43953;45.508;-122.806;2022-10-26T00:11:32;100730.44;;;14.30;65.78
50852;BME280;43953;45.508;-122.806;2022-10-26T00:12:04;100721.97;;;14.27;65.57
50852;BME280;43953;45.508;-122.806;2022-10-26T00:12:36;100719.84;;;14.29;65.55
50852;BME280;43953;45.508;-122.806;2022-10-26T00:13:09;100725.28;;;14.29;65.63
50852;BME280;43953;45.508;-122.806;2022-10-26T00:13:43;100721.97;;;14.27;65.87
50852;BME280;43953;45.508;-122.806;2022-10-26T00:14:15;100721.97;;;14.27;66.13
50852;BME280;43953;45.508;-122.806;2022-10-26T00:14:46;100726.56;;;14.26;65.92
50852;BME280;43953;45.508;-122.806;2022-10-26T00:15:18;100722.78;;;14.27;65.78
50852;BME280;43953;45.508;-122.806;2022-10-26T00:15:50;100727.38;;;14.27;65.87
50852;BME280;43953;45.508;-122.806;2022-10-26T00:16:26;100724.66;;;14.27;65.81
50852;BME280;43953;45.508;-122.806;2022-10-26T00:16:58;100721.97;;;14.27;65.91
50852;BME280;43953;45.508;-122.806;2022-10-26T00:17:30;100728.19;;;14.27;66.04
50852;BME280;43953;45.508;-122.806;2022-10-26T00:18:02;100722.78;;;14.27;66.06
50852;BME280;43953;45.508;-122.806;2022-10-26T00:18:33;100716.53;;;14.27;66.24
50852;BME280;43953;45.508;-122.806;2022-10-26T00:19:05;100711.94;;;14.27;65.74
50852;BME280;43953;45.508;-122.806;2022-10-26T00:19:37;100713.22;;;14.25;66.00
50852;BME280;43953;45.508;-122.806;2022-10-26T00:20:09;100714.44;;;14.29;66.16
50852;BME280;43953;45.508;-122.806;2022-10-26T00:20:41;100711.72;;;14.29;65.89
50852;BME280;43953;45.508;-122.806;2022-10-26T00:21:13;100710.88;;;14.28;65.88
50852;BME280;43953;45.508;-122.806;2022-10-26T00:21:45;100707.94;;;14.30;65.96
50852;BME280;43953;45.508;-122.806;2022-10-26T00:22:17;100709.03;;;14.29;66.01
50852;BME280;43953;45.508;-122.806;2022-10-26T00:22:49;100706.06;;;14.30;66.05
50852;BME280;43953;45.508;-122.806;2022-10-26T00:23:20;100706.88;;;14.31;66.03
50852;BME280;43953;45.508;-122.806;2022-10-26T00:23:52;100703.94;;;14.32;65.71
50852;BME280;43953;45.508;-122.806;2022-10-26T00:24:24;100711.00;;;14.33;65.79
50852;BME280;43953;45.508;-122.806;2022-10-26T00:24:55;100711.00;;;14.33;65.85
50852;BME280;43953;45.508;-122.806;2022-10-26T00:25:27;100705.84;;;14.32;66.12
50852;BME280;43953;45.508;-122.806;2022-10-26T00:25:59;100708.56;;;14.32;66.02
50852;BME280;43953;45.508;-122.806;2022-10-26T00:26:31;100715.00;;;14.31;65.96
50852;BME280;43953;45.508;-122.806;2022-10-26T00:27:02;100716.06;;;14.30;66.21
50852;BME280;43953;45.508;-122.806;2022-10-26T00:27:34;100708.16;;;14.28;65.73
50852;BME280;43953;45.508;-122.806;2022-10-26T00:28:06;100707.13;;;14.29;66.29
50852;BME280;43953;45.508;-122.806;2022-10-26T00:28:38;100709.84;;;14.29;65.82
50852;BME280;43953;45.508;-122.806;2022-10-26T00:29:12;100713.59;;;14.28;65.99
50852;BME280;43953;45.508;-122.806;2022-10-26T00:29:44;100717.13;;;14.29;66.08
50852;BME280;43953;45.508;-122.806;2022-10-26T00:30:16;100716.28;;;14.28;66.15
50852;BME280;43953;45.508;-122.806;2022-10-26T00:30:47;100709.03;;;14.29;66.13
50852;BME280;43953;45.508;-122.806;2022-10-26T00:31:19;100709.03;;;14.29;66.15
50852;BME280;43953;45.508;-122.806;2022-10-26T00:31:51;100712.75;;;14.28;65.88
50852;BME280;43953;45.508;-122.806;2022-10-26T00:32:23;100713.59;;;14.28;65.75
50852;BME280;43953;45.508;-122.806;2022-10-26T00:32:54;100712.75;;;14.28;66.24
50852;BME280;43953;45.508;-122.806;2022-10-26T00:33:26;100719.00;;;14.28;66.17
50852;BME280;43953;45.508;-122.806;2022-10-26T00:34:00;100718.19;;;14.28;66.11
50852;BME280;43953;45.508;-122.806;2022-10-26T00:34:32;100705.72;;;14.27;66.29
50852;BME280;43953;45.508;-122.806;2022-10-26T00:35:04;100709.47;;;14.26;66.29
50852;BME280;43953;45.508;-122.806;2022-10-26T00:35:36;100719.47;;;14.25;66.01
50852;BME280;43953;45.508;-122.806;2022-10-26T00:36:08;100716.75;;;14.25;66.08
50852;BME280;43953;45.508;-122.806;2022-10-26T00:36:40;100714.06;;;14.25;66.29
50852;BME280;43953;45.508;-122.806;2022-10-26T00:37:11;100722.19;;;14.25;66.06
50852;BME280;43953;45.508;-122.806;2022-10-26T00:37:43;100724.06;;;14.25;66.12
50852;BME280;43953;45.508;-122.806;2022-10-26T00:38:15;100724.06;;;14.25;65.99
50852;BME280;43953;45.508;-122.806;2022-10-26T00:38:51;100722.41;;;14.24;66.22
50852;BME280;43953;45.508;-122.806;2022-10-26T00:39:23;100726.19;;;14.23;66.23
50852;BME280;43953;45.508;-122.806;2022-10-26T00:39:55;100740.78;;;14.22;66.01
50852;BME280;43953;45.508;-122.806;2022-10-26T00:40:27;100718.53;;;14.20;66.19
50852;BME280;43953;45.508;-122.806;2022-10-26T00:40:59;100726.66;;;14.20;66.00
50852;BME280;43953;45.508;-122.806;2022-10-26T00:41:33;100725.00;;;14.19;66.21
50852;BME280;43953;45.508;-122.806;2022-10-26T00:42:05;100724.19;;;14.18;66.11
50852;BME280;43953;45.508;-122.806;2022-10-26T00:42:37;100728.78;;;14.18;66.19
50852;BME280;43953;45.508;-122.806;2022-10-26T00:43:37;100723.81;;;14.15;65.88
50852;BME280;43953;45.508;-122.806;2022-10-26T00:45:23;100728.03;;;14.10;65.91
50852;BME280;43953;45.508;-122.806;2022-10-26T00:45:58;100724.28;;;14.11;66.08
50852;BME280;43953;45.508;-122.806;2022-10-26T00:46:33;100727.81;;;14.12;66.03
50852;BME280;43953;45.508;-122.806;2022-10-26T00:47:09;100725.09;;;14.12;66.04
50852;BME280;43953;45.508;-122.806;2022-10-26T00:47:50;100727.22;;;14.10;65.86
50852;BME280;43953;45.508;-122.806;2022-10-26T00:48:29;100724.50;;;14.10;66.14
50852;BME280;43953;45.508;-122.806;2022-10-26T00:49:14;100720.38;;;14.07;65.59
50852;BME280;43953;45.508;-122.806;2022-10-26T00:49:51;100723.09;;;14.07;65.60
50852;BME280;43953;45.508;-122.806;2022-10-26T00:50:27;100721.22;;;14.08;65.95
50852;BME280;43953;45.508;-122.806;2022-10-26T00:51:05;100724.75;;;14.08;65.86
50852;BME280;43953;45.508;-122.806;2022-10-26T00:51:45;100724.75;;;14.08;65.76
50852;BME280;43953;45.508;-122.806;2022-10-26T00:52:18;100721.78;;;14.10;65.66
50852;BME280;43953;45.508;-122.806;2022-10-26T00:52:51;100723.47;;;14.11;65.49
50852;BME280;43953;45.508;-122.806;2022-10-26T00:53:23;100728.03;;;14.10;65.55
50852;BME280;43953;45.508;-122.806;2022-10-26T00:53:55;100725.31;;;14.10;65.25
50852;BME280;43953;45.508;-122.806;2022-10-26T00:54:27;100728.88;;;14.11;65.58
50852;BME280;43953;45.508;-122.806;2022-10-26T00:54:59;100728.88;;;14.11;65.40
50852;BME280;43953;45.508;-122.806;2022-10-26T00:55:33;100726.41;;;14.09;64.99
50852;BME280;43953;45.508;-122.806;2022-10-26T00:56:06;100723.69;;;14.09;65.30
50852;BME280;43953;45.508;-122.806;2022-10-26T00:56:38;100724.75;;;14.08;65.08
50852;BME280;43953;45.508;-122.806;2022-10-26T00:57:14;100730.16;;;14.08;64.92
50852;BME280;43953;45.508;-122.806;2022-10-26T00:57:47;100727.47;;;14.08;65.35
50852;BME280;43953;45.508;-122.806;2022-10-26T00:58:22;100728.50;;;14.07;64.65
50852;BME280;43953;45.508;-122.806;2022-10-26T00:58:58;100733.91;;;14.07;64.93
50852;BME280;43953;45.508;-122.806;2022-10-26T00:59:31;100736.63;;;14.07;65.15
50852;BME280;43953;45.508;-122.806;2022-10-26T01:00:05;100733.91;;;14.07;65.08
50852;BME280;43953;45.508;-122.806;2022-10-26T01:00:40;100734.75;;;14.08;64.90
50852;BME280;43953;45.508;-122.806;2022-10-26T01:01:12;100739.31;;;14.07;65.36
50852;BME280;43953;45.508;-122.806;2022-10-26T01:01:45;100745.81;;;14.06;64.87
50852;BME280;43953;45.508;-122.806;2022-10-26T01:02:18;100740.41;;;14.06;65.14
50852;BME280;43953;45.508;-122.806;2022-10-26T01:02:50;100741.47;;;14.05;65.15
50852;BME280;43953;45.508;-122.806;2022-10-26T01:03:23;100741.47;;;14.05;65.26
50852;BME280;43953;45.508;-122.806;2022-10-26T01:03:55;100738.16;;;14.03;65.35
50852;BME280;43953;45.508;-122.806;2022-10-26T01:04:27;100739.78;;;14.04;65.38
50852;BME280;43953;45.508;-122.806;2022-10-26T01:05:01;100736.50;;;14.02;65.46
50852;BME280;43953;45.508;-122.806;2022-10-26T01:05:34;100742.50;;;14.04;65.42
50852;BME280;43953;45.508;-122.806;2022-10-26T01:06:07;100731.09;;;14.02;65.63
50852;BME280;43953;45.508;-122.806;2022-10-26T01:06:41;100739.78;;;14.04;65.40
50852;BME280;43953;45.508;-122.806;2022-10-26T01:07:13;100732.72;;;14.03;65.62
50852;BME280;43953;45.508;-122.806;2022-10-26T01:07:46;100727.31;;;14.03;65.30
50852;BME280;43953;45.508;-122.806;2022-10-26T01:08:19;100721.09;;;14.03;65.79
50852;BME280;43953;45.508;-122.806;2022-10-26T01:08:51;100721.31;;;14.01;65.49
50852;BME280;43953;45.508;-122.806;2022-10-26T01:09:23;100710.47;;;14.01;65.48
50852;BME280;43953;45.508;-122.806;2022-10-26T01:09:55;100715.31;;;13.99;65.54
50852;BME280;43953;45.508;-122.806;2022-10-26T01:10:27;100709.91;;;13.99;65.31
50852;BME280;43953;45.508;-122.806;2022-10-26T01:10:59;100709.31;;;13.97;65.37
50852;BME280;43953;45.508;-122.806;2022-10-26T01:11:32;100708.47;;;13.97;65.50
50852;BME280;43953;45.508;-122.806;2022-10-26T01:12:04;100712.00;;;13.97;65.26
50852;BME280;43953;45.508;-122.806;2022-10-26T01:12:36;100713.28;;;13.95;65.47
50852;BME280;43953;45.508;-122.806;2022-10-26T01:13:09;100711.41;;;13.95;65.29
50852;BME280;43953;45.508;-122.806;2022-10-26T01:13:42;100719.78;;;13.94;65.51
50852;BME280;43953;45.508;-122.806;2022-10-26T01:14:16;100729.53;;;13.95;65.54
50852;BME280;43953;45.508;-122.806;2022-10-26T01:14:49;100716.81;;;13.95;65.66
50852;BME280;43953;45.508;-122.806;2022-10-26T01:15:33;100722.22;;;13.95;65.67
50852;BME280;43953;45.508;-122.806;2022-10-26T01:18:02;100722.22;;;13.95;65.65
50852;BME280;43953;45.508;-122.806;2022-10-26T01:18:58;100721.19;;;13.96;65.66
50852;BME280;43953;45.508;-122.806;2022-10-26T01:21:18;100712.47;;;13.94;65.79
50852;BME280;43953;45.508;-122.806;2022-10-26T01:22:07;100718.69;;;13.95;65.93
50852;BME280;43953;45.508;-122.806;2022-10-26T01:22:53;100714.94;;;13.96;66.13
50852;BME280;43953;45.508;-122.806;2022-10-26T01:25:40;100714.09;;;13.95;66.12
50852;BME280;43953;45.508;-122.806;2022-10-26T01:26:31;100717.63;;;13.96;66.17
50852;BME280;43953;45.508;-122.806;2022-10-26T01:28:01;100714.72;;;13.97;66.24
50852;BME280;43953;45.508;-122.806;2022-10-26T01:29:47;100702.25;;;13.96;66.17
50852;BME280;43953;45.508;-122.806;2022-10-26T01:30:41;100698.94;;;13.94;65.95
50852;BME280;43953;45.508;-122.806;2022-10-26T01:31:19;100702.47;;;13.95;66.52
50852;BME280;43953;45.508;-122.806;2022-10-26T01:32:11;100690.00;;;13.94;65.93
50852;BME280;43953;45.508;-122.806;2022-10-26T01:34:10;100686.69;;;13.92;66.26
50852;BME280;43953;45.508;-122.806;2022-10-26T01:34:47;100680.44;;;13.91;66.09
50852;BME280;43953;45.508;-122.806;2022-10-26T01:35:25;100670.44;;;13.92;66.07
50852;BME280;43953;45.508;-122.806;2022-10-26T01:36:51;100654.22;;;13.92;66.37
50852;BME280;43953;45.508;-122.806;2022-10-26T01:37:27;100645.03;;;13.93;66.17
50852;BME280;43953;45.508;-122.806;2022-10-26T01:38:09;100638.78;;;13.92;66.35
50852;BME280;43953;45.508;-122.806;2022-10-26T01:39:29;100619.84;;;13.92;66.08
50852;BME280;43953;45.508;-122.806;2022-10-26T01:40:22;100615.25;;;13.93;66.32
50852;BME280;43953;45.508;-122.806;2022-10-26T01:41:50;100635.25;;;13.92;65.92
50852;BME280;43953;45.508;-122.806;2022-10-26T01:42:23;100642.31;;;13.93;66.08
50852;BME280;43953;45.508;-122.806;2022-10-26T01:42:58;100647.97;;;13.91;66.15
50852;BME280;43953;45.508;-122.806;2022-10-26T01:43:35;100647.97;;;13.91;65.98
50852;BME280;43953;45.508;-122.806;2022-10-26T01:44:29;100650.69;;;13.91;66.27
50852;BME280;43953;45.508;-122.806;2022-10-26T01:45:05;100637.97;;;13.92;65.95
50852;BME280;43953;45.508;-122.806;2022-10-26T01:45:42;100628.78;;;13.93;66.03
50852;BME280;43953;45.508;-122.806;2022-10-26T01:46:16;100627.34;;;13.90;65.99
50852;BME280;43953;45.508;-122.806;2022-10-26T01:46:51;100619.03;;;13.92;65.76
50852;BME280;43953;45.508;-122.806;2022-10-26T01:47:25;100624.66;;;13.90;65.51
50852;BME280;43953;45.508;-122.806;2022-10-26T01:47:59;100627.97;;;13.92;66.02
50852;BME280;43953;45.508;-122.806;2022-10-26T01:48:33;100616.53;;;13.90;65.99
50852;BME280;43953;45.508;-122.806;2022-10-26T01:49:09;100624.66;;;13.90;65.95
50852;BME280;43953;45.508;-122.806;2022-10-26T01:49:47;100625.50;;;13.91;65.98
50852;BME280;43953;45.508;-122.806;2022-10-26T01:50:20;100626.53;;;13.89;65.60
50852;BME280;43953;45.508;-122.806;2022-10-26T01:50:53;100619.25;;;13.90;65.97
50852;BME280;43953;45.508;-122.806;2022-10-26T01:51:28;100614.91;;;13.89;65.89
50852;BME280;43953;45.508;-122.806;2022-10-26T01:52:00;100611.38;;;13.88;65.63
50852;BME280;43953;45.508;-122.806;2022-10-26T01:52:32;100605.13;;;13.88;65.66
50852;BME280;43953;45.508;-122.806;2022-10-26T01:53:04;100603.25;;;13.88;65.66
50852;BME280;43953;45.508;-122.806;2022-10-26T01:53:43;100606.78;;;13.89;65.33
50852;BME280;43953;45.508;-122.806;2022-10-26T01:54:16;100604.88;;;13.89;65.58
50852;BME280;43953;45.508;-122.806;2022-10-26T01:54:47;100608.66;;;13.88;65.12
50852;BME280;43953;45.508;-122.806;2022-10-26T01:56:20;100607.84;;;13.88;65.32
50852;BME280;43953;45.508;-122.806;2022-10-26T01:56:56;100610.53;;;13.88;65.44
50852;BME280;43953;45.508;-122.806;2022-10-26T01:57:34;100612.66;;;13.86;65.49
50852;BME280;43953;45.508;-122.806;2022-10-26T02:00:15;100618.06;;;13.86;64.78
50852;BME280;43953;45.508;-122.806;2022-10-26T02:03:21;100622.06;;;13.83;65.26
50852;BME280;43953;45.508;-122.806;2022-10-26T02:04:06;100613.13;;;13.83;65.15
50852;BME280;43953;45.508;-122.806;2022-10-26T02:05:22;100621.25;;;13.83;64.87
50852;BME280;43953;45.508;-122.806;2022-10-26T02:06:11;100612.31;;;13.82;64.77
50852;BME280;43953;45.508;-122.806;2022-10-26T02:07:01;100614.19;;;13.82;64.75
50852;BME280;43953;45.508;-122.806;2022-10-26T02:07:59;100609.81;;;13.81;64.90
50852;BME280;43953;45.508;-122.806;2022-10-26T02:10:59;100623.59;;;13.79;64.77
50852;BME280;43953;45.508;-122.806;2022-10-26T02:11:40;100619.00;;;13.80;64.57
50852;BME280;43953;45.508;-122.806;2022-10-26T02:12:32;100614.88;;;13.77;64.41
50852;BME280;43953;45.508;-122.806;2022-10-26T02:13:31;100614.88;;;13.77;64.53
50852;BME280;43953;45.508;-122.806;2022-10-26T02:15:14;100614.28;;;13.75;64.37
50852;BME280;43953;45.508;-122.806;2022-10-26T02:15:59;100615.34;;;13.74;64.52
50852;BME280;43953;45.508;-122.806;2022-10-26T02:16:47;100615.59;;;13.73;64.41
50852;BME280;43953;45.508;-122.806;2022-10-26T02:18:11;100614.38;;;13.69;64.13
50852;BME280;43953;45.508;-122.806;2022-10-26T02:20:08;100625.00;;;13.70;64.03
50852;BME280;43953;45.508;-122.806;2022-10-26T02:20:47;100633.09;;;13.70;64.29
50852;BME280;43953;45.508;-122.806;2022-10-26T02:21:24;100635.00;;;13.70;64.42
50852;BME280;43953;45.508;-122.806;2022-10-26T02:22:13;100631.09;;;13.65;64.15
50852;BME280;43953;45.508;-122.806;2022-10-26T02:22:50;100635.47;;;13.67;64.42
50852;BME280;43953;45.508;-122.806;2022-10-26T02:23:24;100640.00;;;13.66;64.04
50852;BME280;43953;45.508;-122.806;2022-10-26T02:23:58;100631.09;;;13.65;64.18
50852;BME280;43953;45.508;-122.806;2022-10-26T02:24:30;100636.50;;;13.65;64.47
50852;BME280;43953;45.508;-122.806;2022-10-26T02:25:07;100633.78;;;13.65;64.10
50852;BME280;43953;45.508;-122.806;2022-10-26T02:25:46;100635.88;;;13.63;64.31
50852;BME280;43953;45.508;-122.806;2022-10-26T02:26:24;100636.94;;;13.62;64.39
50852;BME280;43953;45.508;-122.806;2022-10-26T02:26:59;100640.72;;;13.61;64.22
50852;BME280;43953;45.508;-122.806;2022-10-26T02:27:35;100642.38;;;13.62;64.48
50852;BME280;43953;45.508;-122.806;2022-10-26T02:28:15;100642.81;;;13.59;64.19
50852;BME280;43953;45.508;-122.806;2022-10-26T02:28:50;100650.13;;;13.59;64.63
50852;BME280;43953;45.508;-122.806;2022-10-26T02:29:27;100650.13;;;13.59;64.56
50852;BME280;43953;45.508;-122.806;2022-10-26T02:30:02;100646.59;;;13.58;64.65
50852;BME280;43953;45.508;-122.806;2022-10-26T02:30:39;100645.78;;;13.58;64.29
50852;BME280;43953;45.508;-122.806;2022-10-26T02:31:13;100647.63;;;13.57;64.47
50852;BME280;43953;45.508;-122.806;2022-10-26T02:31:47;100653.03;;;13.57;64.17
50852;BME280;43953;45.508;-122.806;2022-10-26T02:32:23;100648.47;;;13.58;64.26
50852;BME280;43953;45.508;-122.806;2022-10-26T02:32:56;100652.22;;;13.57;64.57
50852;BME280;43953;45.508;-122.806;2022-10-26T02:33:32;100658.44;;;13.57;64.22
50852;BME280;43953;45.508;-122.806;2022-10-26T02:34:19;100658.91;;;13.54;64.52
50852;BME280;43953;45.508;-122.806;2022-10-26T02:34:53;100663.28;;;13.55;64.57
50852;BME280;43953;45.508;-122.806;2022-10-26T02:35:29;100666.00;;;13.55;64.31
50852;BME280;43953;45.508;-122.806;2022-10-26T02:36:04;100667.63;;;13.56;64.78
50852;BME280;43953;45.508;-122.806;2022-10-26T02:36:41;100660.81;;;13.54;64.25
50852;BME280;43953;45.508;-122.806;2022-10-26T02:37:16;100659.97;;;13.53;64.25
50852;BME280;43953;45.508;-122.806;2022-10-26T02:37:50;100663.75;;;13.52;64.51
50852;BME280;43953;45.508;-122.806;2022-10-26T02:38:23;100664.78;;;13.51;64.51
50852;BME280;43953;45.508;-122.806;2022-10-26T02:38:57;100666.66;;;13.51;64.94
50852;BME280;43953;45.508;-122.806;2022-10-26T02:39:31;100658.56;;;13.51;64.52
50852;BME280;43953;45.508;-122.806;2022-10-26T02:40:10;100667.50;;;13.51;64.66
50852;BME280;43953;45.508;-122.806;2022-10-26T02:40:46;100664.78;;;13.51;64.87
50852;BME280;43953;45.508;-122.806;2022-10-26T02:41:20;100674.56;;;13.52;64.79
50852;BME280;43953;45.508;-122.806;2022-10-26T02:41:54;100670.19;;;13.51;64.61
50852;BME280;43953;45.508;-122.806;2022-10-26T02:42:27;100669.16;;;13.52;64.71
50852;BME280;43953;45.508;-122.806;2022-10-26T02:43:04;100670.19;;;13.51;64.80
50852;BME280;43953;45.508;-122.806;2022-10-26T02:43:42;100665.84;;;13.50;64.39
50852;BME280;43953;45.508;-122.806;2022-10-26T02:45:25;100677.72;;;13.49;64.55
50852;BME280;43953;45.508;-122.806;2022-10-26T02:46:03;100672.31;;;13.49;64.13
50852;BME280;43953;45.508;-122.806;2022-10-26T02:46:36;100676.66;;;13.50;64.47
50852;BME280;43953;45.508;-122.806;2022-10-26T02:47:08;100683.16;;;13.49;64.21
50852;BME280;43953;45.508;-122.806;2022-10-26T02:47:40;100671.47;;;13.49;64.69
50852;BME280;43953;45.508;-122.806;2022-10-26T02:48:12;100683.16;;;13.49;64.58
50852;BME280;43953;45.508;-122.806;2022-10-26T02:48:44;100684.78;;;13.50;64.74
50852;BME280;43953;45.508;-122.806;2022-10-26T02:49:16;100678.78;;;13.48;64.59
50852;BME280;43953;45.508;-122.806;2022-10-26T02:49:48;100680.44;;;13.49;64.22
50852;BME280;43953;45.508;-122.806;2022-10-26T02:50:25;100683.16;;;13.49;64.66
50852;BME280;43953;45.508;-122.806;2022-10-26T02:52:02;100680.66;;;13.48;64.57
50852;BME280;43953;45.508;-122.806;2022-10-26T02:53:31;100675.69;;;13.45;64.26
50852;BME280;43953;45.508;-122.806;2022-10-26T02:56:07;100686.53;;;13.45;64.16
50852;BME280;43953;45.508;-122.806;2022-10-26T02:56:58;100681.94;;;13.45;64.14
50852;BME280;43953;45.508;-122.806;2022-10-26T02:57:38;100683.59;;;13.46;64.44
50852;BME280;43953;45.508;-122.806;2022-10-26T02:58:15;100683.81;;;13.45;64.20
50852;BME280;43953;45.508;-122.806;2022-10-26T02:58:52;100679.22;;;13.45;64.37
50852;BME280;43953;45.508;-122.806;2022-10-26T02:59:29;100680.91;;;13.46;63.94
50852;BME280;43953;45.508;-122.806;2022-10-26T03:00:03;100683.59;;;13.46;64.06
50852;BME280;43953;45.508;-122.806;2022-10-26T03:00:35;100681.13;;;13.45;64.00
50852;BME280;43953;45.508;-122.806;2022-10-26T03:01:07;100688.16;;;13.46;64.09
50852;BME280;43953;45.508;-122.806;2022-10-26T03:01:39;100692.75;;;13.45;64.05
50852;BME280;43953;45.508;-122.806;2022-10-26T03:02:16;100696.53;;;13.44;63.85
50852;BME280;43953;45.508;-122.806;2022-10-26T03:02:56;100693.22;;;13.42;64.16
50852;BME280;43953;45.508;-122.806;2022-10-26T03:03:28;100694.03;;;13.42;63.87
50852;BME280;43953;45.508;-122.806;2022-10-26T03:04:00;100696.72;;;13.42;64.02
50852;BME280;43953;45.508;-122.806;2022-10-26T03:04:33;100696.72;;;13.42;63.98
50852;BME280;43953;45.508;-122.806;2022-10-26T03:05:19;100693.22;;;13.42;64.07
50852;BME280;43953;45.508;-122.806;2022-10-26T03:05:51;100704.03;;;13.42;64.25
50852;BME280;43953;45.508;-122.806;2022-10-26T03:06:23;100696.97;;;13.41;64.11
50852;BME280;43953;45.508;-122.806;2022-10-26T03:06:55;100700.50;;;13.41;63.99
50852;BME280;43953;45.508;-122.806;2022-10-26T03:07:27;100696.97;;;13.41;64.13
50852;BME280;43953;45.508;-122.806;2022-10-26T03:07:59;100698.03;;;13.40;64.51
50852;BME280;43953;45.508;-122.806;2022-10-26T03:08:30;100695.34;;;13.40;64.07
50852;BME280;43953;45.508;-122.806;2022-10-26T03:09:02;100693.66;;;13.39;64.30
50852;BME280;43953;45.508;-122.806;2022-10-26T03:09:34;100696.16;;;13.40;64.12
50852;BME280;43953;45.508;-122.806;2022-10-26T03:10:06;100698.03;;;13.40;64.24
50852;BME280;43953;45.508;-122.806;2022-10-26T03:10:43;100703.44;;;13.40;63.84
50852;BME280;43953;45.508;-122.806;2022-10-26T03:11:15;100695.34;;;13.40;63.78
50852;BME280;43953;45.508;-122.806;2022-10-26T03:11:47;100699.91;;;13.39;63.74
50852;BME280;43953;45.508;-122.806;2022-10-26T03:12:19;100700.75;;;13.40;63.73
50852;BME280;43953;45.508;-122.806;2022-10-26T03:12:51;100706.16;;;13.40;63.96
50852;BME280;43953;45.508;-122.806;2022-10-26T03:13:23;100699.91;;;13.39;63.70
50852;BME280;43953;45.508;-122.806;2022-10-26T03:13:55;100704.28;;;13.40;64.05
50852;BME280;43953;45.508;-122.806;2022-10-26T03:14:26;100706.97;;;13.40;64.00
50852;BME280;43953;45.508;-122.806;2022-10-26T03:14:58;100708.84;;;13.40;64.03
50852;BME280;43953;45.508;-122.806;2022-10-26T03:15:30;100706.16;;;13.40;63.65
50852;BME280;43953;45.508;-122.806;2022-10-26T03:16:01;100711.56;;;13.40;63.80
50852;BME280;43953;45.508;-122.806;2022-10-26T03:16:33;100722.38;;;13.40;63.79
50852;BME280;43953;45.508;-122.806;2022-10-26T03:17:05;100723.41;;;13.39;63.58
50852;BME280;43953;45.508;-122.806;2022-10-26T03:17:37;100736.13;;;13.38;63.50
50852;BME280;43953;45.508;-122.806;2022-10-26T03:18:08;100742.59;;;13.37;63.45
50852;BME280;43953;45.508;-122.806;2022-10-26T03:18:40;100744.47;;;13.37;63.62
50852;BME280;43953;45.508;-122.806;2022-10-26T03:19:12;100744.69;;;13.35;63.41
50852;BME280;43953;45.508;-122.806;2022-10-26T03:19:43;100751.97;;;13.35;63.39
50852;BME280;43953;45.508;-122.806;2022-10-26T03:20:15;100749.47;;;13.33;63.65
50852;BME280;43953;45.508;-122.806;2022-10-26T03:20:47;100743.25;;;13.33;63.56
50852;BME280;43953;45.508;-122.806;2022-10-26T03:21:19;100739.72;;;13.32;63.90
50852;BME280;43953;45.508;-122.806;2022-10-26T03:21:50;100737.84;;;13.33;63.71
50852;BME280;43953;45.508;-122.806;2022-10-26T03:22:22;100726.22;;;13.32;63.53
50852;BME280;43953;45.508;-122.806;2022-10-26T03:22:54;100729.13;;;13.31;63.57
50852;BME280;43953;45.508;-122.806;2022-10-26T03:23:27;100722.06;;;13.30;63.57
50852;BME280;43953;45.508;-122.806;2022-10-26T03:23:59;100716.91;;;13.28;63.97
50852;BME280;43953;45.508;-122.806;2022-10-26T03:24:30;100728.53;;;13.29;63.74
50852;BME280;43953;45.508;-122.806;2022-10-26T03:25:02;100732.06;;;13.29;63.69
50852;BME280;43953;45.508;-122.806;2022-10-26T03:25:34;100733.72;;;13.30;63.80